sensor_id;sensor_type;location;lat;lon;timestamp;P1;durP1;ratioP1;P2;durP2;ratioP2
70228;SDS011;57617;51.988;5.854;2023-02-28T00:02:13;9.00;;;3.40;;
70228;SDS011;57617;51.988;5.854;2023-02-28T00:04:39;5.93;;;3.30;;
70228;SDS011;57617;51.988;5.854;2023-02-28T00:07:04;6.87;;;3.30;;
70228;SDS011;57617;51.988;5.854;2023-02-28T00:09:29;6.57;;;3.17;;
70228;SDS011;57617;51.988;5.854;2023-02-28T00:11:55;11.87;;;3.97;;
70228;SDS011;57617;51.988;5.854;2023-02-28T00:14:20;7.83;;;3.13;;
70228;SDS011;57617;51.988;5.854;2023-02-28T00:16:45;9.10;;;3.30;;
70228;SDS011;57617;51.988;5.854;2023-02-28T00:19:11;8.30;;;3.50;;
70228;SDS011;57617;51.988;5.854;2023-02-28T00:21:38;6.13;;;3.53;;
70228;SDS011;57617;51.988;5.854;2023-02-28T00:24:05;8.03;;;3.80;;
70228;SDS011;57617;51.988;5.854;2023-02-28T00:26:31;8.83;;;3.83;;
70228;SDS011;57617;51.988;5.854;2023-02-28T00:28:56;12.33;;;3.70;;
70228;SDS011;57617;51.988;5.854;2023-02-28T00:31:21;9.87;;;3.70;;
70228;SDS011;57617;51.988;5.854;2023-02-28T00:33:47;8.40;;;3.43;;
70228;SDS011;57617;51.988;5.854;2023-02-28T00:36:12;6.70;;;3.47;;
70228;SDS011;57617;51.988;5.854;2023-02-28T00:38:38;7.70;;;3.67;;
70228;SDS011;57617;51.988;5.854;2023-02-28T00:41:04;8.10;;;3.60;;
70228;SDS011;57617;51.988;5.854;2023-02-28T00:43:30;7.30;;;3.63;;
70228;SDS011;57617;51.988;5.854;2023-02-28T00:45:59;7.90;;;3.40;;
70228;SDS011;57617;51.988;5.854;2023-02-28T00:48:24;7.60;;;3.73;;
70228;SDS011;57617;51.988;5.854;2023-02-28T00:50:50;8.03;;;3.60;;
70228;SDS011;57617;51.988;5.854;2023-02-28T00:53:15;8.40;;;3.30;;
70228;SDS011;57617;51.988;5.854;2023-02-28T00:55:40;8.33;;;3.60;;
70228;SDS011;57617;51.988;5.854;2023-02-28T00:58:06;9.07;;;3.70;;
70228;SDS011;57617;51.988;5.854;2023-02-28T01:00:31;9.57;;;3.70;;
70228;SDS011;57617;51.988;5.854;2023-02-28T01:02:56;8.47;;;3.53;;
70228;SDS011;57617;51.988;5.854;2023-02-28T01:05:21;8.87;;;3.40;;
70228;SDS011;57617;51.988;5.854;2023-02-28T01:07:47;7.57;;;3.33;;
70228;SDS011;57617;51.988;5.854;2023-02-28T01:10:12;10.87;;;4.23;;
70228;SDS011;57617;51.988;5.854;2023-02-28T01:12:37;10.67;;;3.40;;
70228;SDS011;57617;51.988;5.854;2023-02-28T01:15:03;7.87;;;3.50;;
70228;SDS011;57617;51.988;5.854;2023-02-28T01:17:29;6.70;;;3.60;;
70228;SDS011;57617;51.988;5.854;2023-02-28T01:19:55;9.77;;;3.80;;
70228;SDS011;57617;51.988;5.854;2023-02-28T01:22:20;8.33;;;3.67;;
70228;SDS011;57617;51.988;5.854;2023-02-28T01:24:46;10.07;;;4.07;;
70228;SDS011;57617;51.988;5.854;2023-02-28T01:27:12;10.37;;;3.93;;
70228;SDS011;57617;51.988;5.854;2023-02-28T01:29:38;9.50;;;3.83;;
70228;SDS011;57617;51.988;5.854;2023-02-28T01:32:03;7.03;;;3.50;;
70228;SDS011;57617;51.988;5.854;2023-02-28T01:34:29;6.47;;;3.60;;
70228;SDS011;57617;51.988;5.854;2023-02-28T01:36:54;9.80;;;3.67;;
70228;SDS011;57617;51.988;5.854;2023-02-28T01:39:19;7.27;;;3.80;;
70228;SDS011;57617;51.988;5.854;2023-02-28T01:41:45;6.70;;;3.77;;
70228;SDS011;57617;51.988;5.854;2023-02-28T01:47:13;6.70;;;3.60;;
70228;SDS011;57617;51.988;5.854;2023-02-28T01:49:39;9.77;;;3.73;;
70228;SDS011;57617;51.988;5.854;2023-02-28T01:52:04;9.23;;;4.03;;
70228;SDS011;57617;51.988;5.854;2023-02-28T01:54:30;9.30;;;4.10;;
70228;SDS011;57617;51.988;5.854;2023-02-28T01:57:01;9.00;;;3.67;;
70228;SDS011;57617;51.988;5.854;2023-02-28T01:59:37;7.13;;;4.00;;
70228;SDS011;57617;51.988;5.854;2023-02-28T02:02:13;7.73;;;3.80;;
70228;SDS011;57617;51.988;5.854;2023-02-28T02:04:43;8.00;;;3.70;;
70228;SDS011;57617;51.988;5.854;2023-02-28T02:07:16;7.30;;;3.97;;
70228;SDS011;57617;51.988;5.854;2023-02-28T02:09:42;8.37;;;3.90;;
70228;SDS011;57617;51.988;5.854;2023-02-28T02:12:11;12.37;;;4.27;;
70228;SDS011;57617;51.988;5.854;2023-02-28T02:17:42;9.63;;;4.40;;
70228;SDS011;57617;51.988;5.854;2023-02-28T02:20:27;7.57;;;3.87;;
70228;SDS011;57617;51.988;5.854;2023-02-28T02:34:20;6.73;;;3.67;;
70228;SDS011;57617;51.988;5.854;2023-02-28T02:37:24;14.47;;;4.13;;
70228;SDS011;57617;51.988;5.854;2023-02-28T02:42:50;7.90;;;3.50;;
70228;SDS011;57617;51.988;5.854;2023-02-28T02:45:43;11.00;;;3.77;;
70228;SDS011;57617;51.988;5.854;2023-02-28T02:48:11;8.17;;;3.77;;
70228;SDS011;57617;51.988;5.854;2023-02-28T02:50:44;7.07;;;3.50;;
70228;SDS011;57617;51.988;5.854;2023-02-28T02:53:11;8.77;;;3.33;;
70228;SDS011;57617;51.988;5.854;2023-02-28T02:55:42;8.07;;;4.07;;
70228;SDS011;57617;51.988;5.854;2023-02-28T02:58:13;7.00;;;3.43;;
70228;SDS011;57617;51.988;5.854;2023-02-28T03:00:42;7.30;;;3.73;;
70228;SDS011;57617;51.988;5.854;2023-02-28T03:03:12;8.87;;;3.67;;
70228;SDS011;57617;51.988;5.854;2023-02-28T03:05:42;7.70;;;3.47;;
70228;SDS011;57617;51.988;5.854;2023-02-28T03:08:11;7.53;;;3.53;;
70228;SDS011;57617;51.988;5.854;2023-02-28T03:10:37;5.43;;;3.07;;
70228;SDS011;57617;51.988;5.854;2023-02-28T03:15:55;7.13;;;3.40;;
70228;SDS011;57617;51.988;5.854;2023-02-28T03:18:36;7.90;;;3.63;;
70228;SDS011;57617;51.988;5.854;2023-02-28T03:21:06;8.57;;;3.17;;
70228;SDS011;57617;51.988;5.854;2023-02-28T03:26:34;7.73;;;3.57;;
70228;SDS011;57617;51.988;5.854;2023-02-28T03:29:05;10.00;;;3.60;;
70228;SDS011;57617;51.988;5.854;2023-02-28T03:31:41;5.70;;;3.30;;
70228;SDS011;57617;51.988;5.854;2023-02-28T03:36:48;6.85;;;3.40;;
70228;SDS011;57617;51.988;5.854;2023-02-28T03:39:19;7.83;;;3.40;;
70228;SDS011;57617;51.988;5.854;2023-02-28T03:41:52;8.60;;;3.53;;
70228;SDS011;57617;51.988;5.854;2023-02-28T03:44:29;6.93;;;3.43;;
70228;SDS011;57617;51.988;5.854;2023-02-28T03:47:00;7.77;;;3.33;;
70228;SDS011;57617;51.988;5.854;2023-02-28T03:52:27;3.60;;;2.10;;
70228;SDS011;57617;51.988;5.854;2023-02-28T03:54:57;4.57;;;2.47;;
70228;SDS011;57617;51.988;5.854;2023-02-28T03:57:37;5.17;;;2.30;;
70228;SDS011;57617;51.988;5.854;2023-02-28T04:00:12;3.25;;;2.15;;
70228;SDS011;57617;51.988;5.854;2023-02-28T04:02:43;4.45;;;2.20;;
70228;SDS011;57617;51.988;5.854;2023-02-28T04:05:09;3.93;;;2.10;;
70228;SDS011;57617;51.988;5.854;2023-02-28T04:07:34;3.30;;;2.03;;
70228;SDS011;57617;51.988;5.854;2023-02-28T04:10:00;4.80;;;1.97;;
70228;SDS011;57617;51.988;5.854;2023-02-28T04:12:25;7.00;;;1.83;;
70228;SDS011;57617;51.988;5.854;2023-02-28T04:14:51;3.77;;;1.80;;
70228;SDS011;57617;51.988;5.854;2023-02-28T04:17:16;3.50;;;2.00;;
70228;SDS011;57617;51.988;5.854;2023-02-28T04:19:42;4.20;;;2.10;;
70228;SDS011;57617;51.988;5.854;2023-02-28T04:22:07;3.63;;;1.90;;
70228;SDS011;57617;51.988;5.854;2023-02-28T04:24:33;3.03;;;1.70;;
70228;SDS011;57617;51.988;5.854;2023-02-28T04:26:59;9.73;;;2.10;;
70228;SDS011;57617;51.988;5.854;2023-02-28T04:29:26;2.87;;;1.80;;
70228;SDS011;57617;51.988;5.854;2023-02-28T04:31:53;3.43;;;2.00;;
70228;SDS011;57617;51.988;5.854;2023-02-28T04:34:19;4.23;;;2.00;;
70228;SDS011;57617;51.988;5.854;2023-02-28T04:36:46;4.03;;;2.23;;
70228;SDS011;57617;51.988;5.854;2023-02-28T04:39:14;4.30;;;2.13;;
70228;SDS011;57617;51.988;5.854;2023-02-28T04:41:40;4.17;;;2.40;;
70228;SDS011;57617;51.988;5.854;2023-02-28T04:44:05;6.13;;;2.70;;
70228;SDS011;57617;51.988;5.854;2023-02-28T04:46:30;4.77;;;2.40;;
70228;SDS011;57617;51.988;5.854;2023-02-28T04:48:56;5.30;;;2.50;;
70228;SDS011;57617;51.988;5.854;2023-02-28T04:51:21;5.63;;;2.10;;
70228;SDS011;57617;51.988;5.854;2023-02-28T04:53:47;3.90;;;2.30;;
70228;SDS011;57617;51.988;5.854;2023-02-28T04:56:14;4.23;;;2.23;;
70228;SDS011;57617;51.988;5.854;2023-02-28T04:58:41;4.17;;;2.30;;
70228;SDS011;57617;51.988;5.854;2023-02-28T05:01:13;3.50;;;2.17;;
70228;SDS011;57617;51.988;5.854;2023-02-28T05:03:42;3.87;;;2.10;;
70228;SDS011;57617;51.988;5.854;2023-02-28T05:06:08;5.20;;;2.57;;
70228;SDS011;57617;51.988;5.854;2023-02-28T05:08:34;5.13;;;2.27;;
70228;SDS011;57617;51.988;5.854;2023-02-28T05:11:00;4.77;;;2.10;;
70228;SDS011;57617;51.988;5.854;2023-02-28T05:13:26;3.97;;;2.10;;
70228;SDS011;57617;51.988;5.854;2023-02-28T05:15:52;3.03;;;1.73;;
70228;SDS011;57617;51.988;5.854;2023-02-28T05:18:17;4.70;;;1.90;;
70228;SDS011;57617;51.988;5.854;2023-02-28T05:20:42;4.40;;;2.10;;
70228;SDS011;57617;51.988;5.854;2023-02-28T05:23:08;5.60;;;2.10;;
70228;SDS011;57617;51.988;5.854;2023-02-28T05:25:37;4.30;;;2.10;;
70228;SDS011;57617;51.988;5.854;2023-02-28T05:28:04;5.60;;;2.17;;
70228;SDS011;57617;51.988;5.854;2023-02-28T05:30:29;3.33;;;2.17;;
70228;SDS011;57617;51.988;5.854;2023-02-28T05:32:56;4.50;;;2.10;;
70228;SDS011;57617;51.988;5.854;2023-02-28T05:35:22;5.67;;;2.20;;
70228;SDS011;57617;51.988;5.854;2023-02-28T05:37:47;4.53;;;2.23;;
70228;SDS011;57617;51.988;5.854;2023-02-28T05:40:13;4.57;;;2.47;;
70228;SDS011;57617;51.988;5.854;2023-02-28T05:42:38;5.10;;;2.07;;
70228;SDS011;57617;51.988;5.854;2023-02-28T05:45:04;3.30;;;2.17;;
70228;SDS011;57617;51.988;5.854;2023-02-28T05:47:31;4.97;;;2.60;;
70228;SDS011;57617;51.988;5.854;2023-02-28T05:49:57;3.90;;;2.30;;
70228;SDS011;57617;51.988;5.854;2023-02-28T05:52:22;4.90;;;2.10;;
70228;SDS011;57617;51.988;5.854;2023-02-28T05:54:48;4.57;;;2.00;;
70228;SDS011;57617;51.988;5.854;2023-02-28T05:57:13;4.27;;;2.50;;
70228;SDS011;57617;51.988;5.854;2023-02-28T05:59:39;4.77;;;2.17;;
70228;SDS011;57617;51.988;5.854;2023-02-28T06:02:05;4.57;;;2.17;;
70228;SDS011;57617;51.988;5.854;2023-02-28T06:04:31;9.13;;;2.43;;
70228;SDS011;57617;51.988;5.854;2023-02-28T06:06:56;4.17;;;2.30;;
70228;SDS011;57617;51.988;5.854;2023-02-28T06:09:22;5.30;;;2.50;;
70228;SDS011;57617;51.988;5.854;2023-02-28T06:11:48;6.03;;;2.23;;
70228;SDS011;57617;51.988;5.854;2023-02-28T06:14:17;4.47;;;2.10;;
70228;SDS011;57617;51.988;5.854;2023-02-28T06:16:44;3.80;;;2.17;;
70228;SDS011;57617;51.988;5.854;2023-02-28T06:19:09;5.00;;;2.37;;
70228;SDS011;57617;51.988;5.854;2023-02-28T06:21:35;5.70;;;2.20;;
70228;SDS011;57617;51.988;5.854;2023-02-28T06:24:00;4.53;;;2.17;;
70228;SDS011;57617;51.988;5.854;2023-02-28T06:26:26;3.03;;;1.90;;
70228;SDS011;57617;51.988;5.854;2023-02-28T06:28:51;3.03;;;1.73;;
70228;SDS011;57617;51.988;5.854;2023-02-28T06:31:17;4.53;;;1.80;;
70228;SDS011;57617;51.988;5.854;2023-02-28T06:33:43;3.23;;;2.07;;
70228;SDS011;57617;51.988;5.854;2023-02-28T06:36:10;4.17;;;2.50;;
70228;SDS011;57617;51.988;5.854;2023-02-28T06:38:36;5.20;;;2.50;;
70228;SDS011;57617;51.988;5.854;2023-02-28T06:41:03;4.33;;;2.03;;
70228;SDS011;57617;51.988;5.854;2023-02-28T06:43:29;4.00;;;2.07;;
70228;SDS011;57617;51.988;5.854;2023-02-28T06:45:57;4.87;;;2.07;;
70228;SDS011;57617;51.988;5.854;2023-02-28T06:48:25;4.90;;;2.23;;
70228;SDS011;57617;51.988;5.854;2023-02-28T06:50:51;4.20;;;1.90;;
70228;SDS011;57617;51.988;5.854;2023-02-28T06:53:17;6.37;;;1.90;;
70228;SDS011;57617;51.988;5.854;2023-02-28T06:55:42;3.50;;;1.73;;
70228;SDS011;57617;51.988;5.854;2023-02-28T06:58:07;3.57;;;1.50;;
70228;SDS011;57617;51.988;5.854;2023-02-28T07:00:40;2.63;;;1.60;;
70228;SDS011;57617;51.988;5.854;2023-02-28T07:03:06;2.90;;;1.63;;
70228;SDS011;57617;51.988;5.854;2023-02-28T07:05:34;2.80;;;1.43;;
70228;SDS011;57617;51.988;5.854;2023-02-28T07:08:00;4.20;;;1.70;;
70228;SDS011;57617;51.988;5.854;2023-02-28T07:10:26;4.50;;;1.67;;
70228;SDS011;57617;51.988;5.854;2023-02-28T07:12:51;3.20;;;1.67;;
70228;SDS011;57617;51.988;5.854;2023-02-28T07:15:16;3.67;;;2.00;;
70228;SDS011;57617;51.988;5.854;2023-02-28T07:17:42;3.60;;;1.80;;
70228;SDS011;57617;51.988;5.854;2023-02-28T07:20:07;3.37;;;1.80;;
70228;SDS011;57617;51.988;5.854;2023-02-28T07:22:33;2.73;;;1.70;;
70228;SDS011;57617;51.988;5.854;2023-02-28T07:24:58;4.07;;;1.80;;
70228;SDS011;57617;51.988;5.854;2023-02-28T07:27:23;3.90;;;2.00;;
70228;SDS011;57617;51.988;5.854;2023-02-28T07:29:50;5.93;;;1.93;;
70228;SDS011;57617;51.988;5.854;2023-02-28T07:32:16;3.80;;;1.90;;
70228;SDS011;57617;51.988;5.854;2023-02-28T07:34:41;3.40;;;1.90;;
70228;SDS011;57617;51.988;5.854;2023-02-28T07:37:06;3.07;;;1.70;;
70228;SDS011;57617;51.988;5.854;2023-02-28T07:39:31;3.50;;;2.07;;
70228;SDS011;57617;51.988;5.854;2023-02-28T07:41:57;7.47;;;2.17;;
70228;SDS011;57617;51.988;5.854;2023-02-28T07:44:23;4.00;;;1.83;;
70228;SDS011;57617;51.988;5.854;2023-02-28T07:46:48;4.23;;;2.07;;
70228;SDS011;57617;51.988;5.854;2023-02-28T07:49:13;4.63;;;2.10;;
70228;SDS011;57617;51.988;5.854;2023-02-28T07:51:38;4.63;;;2.00;;
70228;SDS011;57617;51.988;5.854;2023-02-28T07:54:04;6.17;;;1.90;;
70228;SDS011;57617;51.988;5.854;2023-02-28T07:56:30;6.07;;;2.30;;
70228;SDS011;57617;51.988;5.854;2023-02-28T07:58:55;6.17;;;2.40;;
70228;SDS011;57617;51.988;5.854;2023-02-28T08:01:20;4.13;;;2.17;;
70228;SDS011;57617;51.988;5.854;2023-02-28T08:03:46;8.50;;;2.60;;
70228;SDS011;57617;51.988;5.854;2023-02-28T08:06:16;5.67;;;2.80;;
70228;SDS011;57617;51.988;5.854;2023-02-28T08:08:43;5.43;;;2.80;;
70228;SDS011;57617;51.988;5.854;2023-02-28T08:11:09;5.90;;;2.63;;
70228;SDS011;57617;51.988;5.854;2023-02-28T08:13:34;5.17;;;3.30;;
70228;SDS011;57617;51.988;5.854;2023-02-28T08:16:00;4.37;;;2.00;;
70228;SDS011;57617;51.988;5.854;2023-02-28T08:18:26;5.80;;;4.10;;
70228;SDS011;57617;51.988;5.854;2023-02-28T08:20:51;3.90;;;2.10;;
70228;SDS011;57617;51.988;5.854;2023-02-28T08:23:17;3.60;;;2.10;;
70228;SDS011;57617;51.988;5.854;2023-02-28T08:25:42;8.33;;;2.30;;
70228;SDS011;57617;51.988;5.854;2023-02-28T08:28:07;6.33;;;2.60;;
70228;SDS011;57617;51.988;5.854;2023-02-28T08:30:33;4.13;;;1.97;;
70228;SDS011;57617;51.988;5.854;2023-02-28T08:32:58;4.83;;;2.00;;
70228;SDS011;57617;51.988;5.854;2023-02-28T08:35:23;3.17;;;1.73;;
70228;SDS011;57617;51.988;5.854;2023-02-28T08:37:49;4.27;;;2.00;;
70228;SDS011;57617;51.988;5.854;2023-02-28T08:40:14;3.37;;;1.90;;
70228;SDS011;57617;51.988;5.854;2023-02-28T08:42:46;4.20;;;2.30;;
70228;SDS011;57617;51.988;5.854;2023-02-28T08:45:12;3.53;;;2.00;;
70228;SDS011;57617;51.988;5.854;2023-02-28T08:47:39;3.57;;;1.97;;
70228;SDS011;57617;51.988;5.854;2023-02-28T08:50:04;5.80;;;2.50;;
70228;SDS011;57617;51.988;5.854;2023-02-28T08:52:30;4.10;;;2.10;;
70228;SDS011;57617;51.988;5.854;2023-02-28T08:54:56;4.60;;;2.33;;
70228;SDS011;57617;51.988;5.854;2023-02-28T08:57:21;3.08;;;1.95;;
70228;SDS011;57617;51.988;5.854;2023-02-28T08:59:46;3.53;;;1.90;;
70228;SDS011;57617;51.988;5.854;2023-02-28T09:02:12;2.78;;;1.90;;
70228;SDS011;57617;51.988;5.854;2023-02-28T09:04:39;5.67;;;1.90;;
70228;SDS011;57617;51.988;5.854;2023-02-28T09:07:04;3.13;;;1.70;;
70228;SDS011;57617;51.988;5.854;2023-02-28T09:09:29;3.42;;;1.80;;
70228;SDS011;57617;51.988;5.854;2023-02-28T09:11:55;2.95;;;1.70;;
70228;SDS011;57617;51.988;5.854;2023-02-28T09:14:21;3.25;;;1.65;;
70228;SDS011;57617;51.988;5.854;2023-02-28T09:16:46;3.20;;;1.80;;
70228;SDS011;57617;51.988;5.854;2023-02-28T09:19:12;3.03;;;1.77;;
70228;SDS011;57617;51.988;5.854;2023-02-28T09:21:37;3.92;;;1.85;;
70228;SDS011;57617;51.988;5.854;2023-02-28T09:24:03;4.20;;;2.10;;
70228;SDS011;57617;51.988;5.854;2023-02-28T09:26:28;3.22;;;1.73;;
70228;SDS011;57617;51.988;5.854;2023-02-28T09:28:54;2.72;;;1.60;;
70228;SDS011;57617;51.988;5.854;2023-02-28T09:31:21;2.60;;;1.60;;
70228;SDS011;57617;51.988;5.854;2023-02-28T09:33:48;3.47;;;1.50;;
70228;SDS011;57617;51.988;5.854;2023-02-28T09:36:14;2.53;;;1.38;;
70228;SDS011;57617;51.988;5.854;2023-02-28T09:38:40;2.88;;;1.40;;
70228;SDS011;57617;51.988;5.854;2023-02-28T09:41:11;1.97;;;1.53;;
70228;SDS011;57617;51.988;5.854;2023-02-28T09:43:49;3.72;;;1.70;;
70228;SDS011;57617;51.988;5.854;2023-02-28T09:46:23;2.42;;;1.63;;
70228;SDS011;57617;51.988;5.854;2023-02-28T09:48:51;3.22;;;1.35;;
70228;SDS011;57617;51.988;5.854;2023-02-28T09:51:39;2.13;;;1.48;;
70228;SDS011;57617;51.988;5.854;2023-02-28T09:54:05;2.00;;;1.33;;
70228;SDS011;57617;51.988;5.854;2023-02-28T09:56:32;4.43;;;1.50;;
70228;SDS011;57617;51.988;5.854;2023-02-28T10:02:08;2.25;;;1.50;;
70228;SDS011;57617;51.988;5.854;2023-02-28T10:07:35;2.65;;;1.60;;
70228;SDS011;57617;51.988;5.854;2023-02-28T10:10:26;4.03;;;1.60;;
70228;SDS011;57617;51.988;5.854;2023-02-28T10:12:57;3.80;;;2.00;;
70228;SDS011;57617;51.988;5.854;2023-02-28T10:15:26;5.03;;;2.08;;
70228;SDS011;57617;51.988;5.854;2023-02-28T10:17:57;3.27;;;1.73;;
70228;SDS011;57617;51.988;5.854;2023-02-28T10:20:25;3.20;;;2.15;;
70228;SDS011;57617;51.988;5.854;2023-02-28T10:25:49;4.30;;;1.73;;
70228;SDS011;57617;51.988;5.854;2023-02-28T10:28:20;2.78;;;1.60;;
70228;SDS011;57617;51.988;5.854;2023-02-28T10:30:46;3.10;;;1.70;;
70228;SDS011;57617;51.988;5.854;2023-02-28T10:33:19;4.43;;;1.50;;
70228;SDS011;57617;51.988;5.854;2023-02-28T10:35:55;4.85;;;1.63;;
70228;SDS011;57617;51.988;5.854;2023-02-28T10:38:21;2.80;;;1.40;;
70228;SDS011;57617;51.988;5.854;2023-02-28T10:40:49;2.63;;;1.67;;
70228;SDS011;57617;51.988;5.854;2023-02-28T10:45:40;3.08;;;1.63;;
70228;SDS011;57617;51.988;5.854;2023-02-28T10:53:16;2.60;;;1.70;;
70228;SDS011;57617;51.988;5.854;2023-02-28T10:55:42;3.25;;;1.80;;
70228;SDS011;57617;51.988;5.854;2023-02-28T10:58:21;2.33;;;1.30;;
70228;SDS011;57617;51.988;5.854;2023-02-28T11:00:48;3.13;;;1.70;;
70228;SDS011;57617;51.988;5.854;2023-02-28T11:05:58;2.57;;;1.80;;
70228;SDS011;57617;51.988;5.854;2023-02-28T11:08:24;3.97;;;1.60;;
70228;SDS011;57617;51.988;5.854;2023-02-28T11:10:56;2.72;;;1.80;;
70228;SDS011;57617;51.988;5.854;2023-02-28T11:13:26;4.75;;;2.70;;
70228;SDS011;57617;51.988;5.854;2023-02-28T11:15:57;4.80;;;2.45;;
70228;SDS011;57617;51.988;5.854;2023-02-28T11:21:03;2.47;;;1.50;;
70228;SDS011;57617;51.988;5.854;2023-02-28T11:23:29;2.90;;;1.80;;
70228;SDS011;57617;51.988;5.854;2023-02-28T11:25:59;2.08;;;1.52;;
70228;SDS011;57617;51.988;5.854;2023-02-28T11:28:30;3.15;;;1.75;;
70228;SDS011;57617;51.988;5.854;2023-02-28T11:33:54;2.97;;;1.70;;
70228;SDS011;57617;51.988;5.854;2023-02-28T11:36:31;2.80;;;1.70;;
70228;SDS011;57617;51.988;5.854;2023-02-28T11:39:01;3.65;;;1.90;;
70228;SDS011;57617;51.988;5.854;2023-02-28T11:41:51;3.10;;;1.90;;
70228;SDS011;57617;51.988;5.854;2023-02-28T11:45:11;2.67;;;1.58;;
70228;SDS011;57617;51.988;5.854;2023-02-28T11:47:48;4.20;;;1.73;;
70228;SDS011;57617;51.988;5.854;2023-02-28T11:56:15;4.18;;;1.80;;
70228;SDS011;57617;51.988;5.854;2023-02-28T12:01:43;4.90;;;2.30;;
70228;SDS011;57617;51.988;5.854;2023-02-28T12:04:56;2.70;;;1.85;;
70228;SDS011;57617;51.988;5.854;2023-02-28T12:07:17;4.70;;;2.10;;
70228;SDS011;57617;51.988;5.854;2023-02-28T12:09:59;3.05;;;1.90;;
70228;SDS011;57617;51.988;5.854;2023-02-28T12:15:20;3.35;;;2.08;;
70228;SDS011;57617;51.988;5.854;2023-02-28T12:26:09;4.93;;;2.13;;
70228;SDS011;57617;51.988;5.854;2023-02-28T12:28:53;8.25;;;2.80;;
70228;SDS011;57617;51.988;5.854;2023-02-28T12:31:35;3.58;;;2.28;;
70228;SDS011;57617;51.988;5.854;2023-02-28T12:34:05;5.40;;;2.47;;
70228;SDS011;57617;51.988;5.854;2023-02-28T12:36:34;6.75;;;2.78;;
70228;SDS011;57617;51.988;5.854;2023-02-28T12:39:07;5.28;;;2.40;;
70228;SDS011;57617;51.988;5.854;2023-02-28T12:41:54;4.00;;;2.28;;
70228;SDS011;57617;51.988;5.854;2023-02-28T12:47:14;3.65;;;2.20;;
70228;SDS011;57617;51.988;5.854;2023-02-28T12:49:54;5.35;;;2.80;;
70228;SDS011;57617;51.988;5.854;2023-02-28T12:55:21;5.53;;;2.70;;
70228;SDS011;57617;51.988;5.854;2023-02-28T12:58:03;2.65;;;2.00;;
70228;SDS011;57617;51.988;5.854;2023-02-28T13:00:38;4.40;;;2.20;;
70228;SDS011;57617;51.988;5.854;2023-02-28T13:03:44;5.32;;;2.17;;
70228;SDS011;57617;51.988;5.854;2023-02-28T13:09:27;3.28;;;2.10;;
70228;SDS011;57617;51.988;5.854;2023-02-28T13:11:54;2.65;;;2.00;;
70228;SDS011;57617;51.988;5.854;2023-02-28T13:14:26;3.65;;;2.13;;
70228;SDS011;57617;51.988;5.854;2023-02-28T13:19:25;3.55;;;1.98;;
70228;SDS011;57617;51.988;5.854;2023-02-28T13:21:53;3.38;;;1.80;;
70228;SDS011;57617;51.988;5.854;2023-02-28T13:29:34;3.05;;;2.03;;
70228;SDS011;57617;51.988;5.854;2023-02-28T13:50:27;3.60;;;1.90;;
70228;SDS011;57617;51.988;5.854;2023-02-28T13:53:00;3.20;;;1.88;;
70228;SDS011;57617;51.988;5.854;2023-02-28T13:55:44;3.45;;;2.30;;
70228;SDS011;57617;51.988;5.854;2023-02-28T14:07:03;3.53;;;2.10;;
70228;SDS011;57617;51.988;5.854;2023-02-28T14:09:41;3.75;;;1.90;;
70228;SDS011;57617;51.988;5.854;2023-02-28T14:17:58;2.97;;;1.90;;
70228;SDS011;57617;51.988;5.854;2023-02-28T14:20:27;3.95;;;2.20;;
70228;SDS011;57617;51.988;5.854;2023-02-28T14:26:03;3.65;;;2.35;;
70228;SDS011;57617;51.988;5.854;2023-02-28T14:31:29;4.72;;;2.22;;
70228;SDS011;57617;51.988;5.854;2023-02-28T14:34:12;4.07;;;2.33;;
70228;SDS011;57617;51.988;5.854;2023-02-28T14:36:50;3.47;;;2.00;;
70228;SDS011;57617;51.988;5.854;2023-02-28T14:39:22;4.88;;;2.25;;
70228;SDS011;57617;51.988;5.854;2023-02-28T14:41:48;4.68;;;2.05;;
70228;SDS011;57617;51.988;5.854;2023-02-28T14:44:18;3.05;;;1.95;;
70228;SDS011;57617;51.988;5.854;2023-02-28T14:46:57;4.30;;;1.85;;
70228;SDS011;57617;51.988;5.854;2023-02-28T14:49:33;2.97;;;2.03;;
70228;SDS011;57617;51.988;5.854;2023-02-28T14:52:23;6.97;;;1.83;;
70228;SDS011;57617;51.988;5.854;2023-02-28T14:55:03;2.75;;;1.98;;
70228;SDS011;57617;51.988;5.854;2023-02-28T14:57:38;2.70;;;1.90;;
70228;SDS011;57617;51.988;5.854;2023-02-28T15:02:35;3.90;;;2.20;;
70228;SDS011;57617;51.988;5.854;2023-02-28T15:05:22;3.67;;;2.00;;
70228;SDS011;57617;51.988;5.854;2023-02-28T15:08:05;3.25;;;2.05;;
70228;SDS011;57617;51.988;5.854;2023-02-28T15:10:40;3.00;;;1.90;;
70228;SDS011;57617;51.988;5.854;2023-02-28T15:13:11;5.75;;;1.95;;
70228;SDS011;57617;51.988;5.854;2023-02-28T15:15:49;4.10;;;2.17;;
70228;SDS011;57617;51.988;5.854;2023-02-28T15:21:04;3.20;;;1.73;;
70228;SDS011;57617;51.988;5.854;2023-02-28T15:23:32;6.10;;;1.95;;
70228;SDS011;57617;51.988;5.854;2023-02-28T15:26:01;3.60;;;1.90;;
70228;SDS011;57617;51.988;5.854;2023-02-28T15:28:27;3.22;;;1.75;;
70228;SDS011;57617;51.988;5.854;2023-02-28T15:30:58;3.20;;;1.80;;
70228;SDS011;57617;51.988;5.854;2023-02-28T15:33:29;3.25;;;1.75;;
70228;SDS011;57617;51.988;5.854;2023-02-28T15:36:06;4.28;;;2.00;;
70228;SDS011;57617;51.988;5.854;2023-02-28T15:38:42;3.10;;;1.58;;
70228;SDS011;57617;51.988;5.854;2023-02-28T15:41:21;2.80;;;1.80;;
70228;SDS011;57617;51.988;5.854;2023-02-28T15:44:13;2.38;;;1.58;;
70228;SDS011;57617;51.988;5.854;2023-02-28T15:46:44;3.80;;;1.70;;
70228;SDS011;57617;51.988;5.854;2023-02-28T15:49:20;2.63;;;1.73;;
70228;SDS011;57617;51.988;5.854;2023-02-28T15:51:48;3.28;;;1.83;;
70228;SDS011;57617;51.988;5.854;2023-02-28T15:54:48;2.55;;;1.77;;
70228;SDS011;57617;51.988;5.854;2023-02-28T15:57:19;3.47;;;1.70;;
70228;SDS011;57617;51.988;5.854;2023-02-28T15:59:54;2.20;;;1.75;;
70228;SDS011;57617;51.988;5.854;2023-02-28T16:02:30;2.83;;;1.80;;
70228;SDS011;57617;51.988;5.854;2023-02-28T16:07:35;3.50;;;2.15;;
70228;SDS011;57617;51.988;5.854;2023-02-28T16:10:02;2.70;;;1.70;;
70228;SDS011;57617;51.988;5.854;2023-02-28T16:12:30;2.97;;;1.83;;
70228;SDS011;57617;51.988;5.854;2023-02-28T16:14:59;3.08;;;1.75;;
70228;SDS011;57617;51.988;5.854;2023-02-28T16:17:28;4.85;;;1.90;;
70228;SDS011;57617;51.988;5.854;2023-02-28T16:19:56;4.78;;;2.17;;
70228;SDS011;57617;51.988;5.854;2023-02-28T16:22:21;3.35;;;2.05;;
70228;SDS011;57617;51.988;5.854;2023-02-28T16:24:47;2.90;;;1.90;;
70228;SDS011;57617;51.988;5.854;2023-02-28T16:29:43;2.60;;;1.92;;
70228;SDS011;57617;51.988;5.854;2023-02-28T16:32:10;3.78;;;2.17;;
70228;SDS011;57617;51.988;5.854;2023-02-28T16:34:38;3.85;;;2.00;;
70228;SDS011;57617;51.988;5.854;2023-02-28T16:37:04;2.88;;;1.83;;
70228;SDS011;57617;51.988;5.854;2023-02-28T16:39:35;3.90;;;1.95;;
70228;SDS011;57617;51.988;5.854;2023-02-28T16:42:00;6.50;;;2.10;;
70228;SDS011;57617;51.988;5.854;2023-02-28T16:46:56;3.80;;;2.00;;
70228;SDS011;57617;51.988;5.854;2023-02-28T16:49:24;4.38;;;1.88;;
70228;SDS011;57617;51.988;5.854;2023-02-28T16:51:49;3.53;;;2.08;;
70228;SDS011;57617;51.988;5.854;2023-02-28T16:54:14;3.35;;;1.85;;
70228;SDS011;57617;51.988;5.854;2023-02-28T16:56:43;3.83;;;1.98;;
70228;SDS011;57617;51.988;5.854;2023-02-28T16:59:10;6.43;;;2.10;;
70228;SDS011;57617;51.988;5.854;2023-02-28T17:01:36;5.10;;;1.95;;
70228;SDS011;57617;51.988;5.854;2023-02-28T17:04:02;3.33;;;2.10;;
70228;SDS011;57617;51.988;5.854;2023-02-28T17:06:27;3.65;;;1.92;;
70228;SDS011;57617;51.988;5.854;2023-02-28T17:08:54;4.90;;;2.30;;
70228;SDS011;57617;51.988;5.854;2023-02-28T17:11:20;3.67;;;2.20;;
70228;SDS011;57617;51.988;5.854;2023-02-28T17:13:46;3.67;;;2.13;;
70228;SDS011;57617;51.988;5.854;2023-02-28T17:16:29;4.97;;;2.20;;
70228;SDS011;57617;51.988;5.854;2023-02-28T17:18:59;4.10;;;2.25;;
70228;SDS011;57617;51.988;5.854;2023-02-28T17:21:26;5.82;;;3.00;;
70228;SDS011;57617;51.988;5.854;2023-02-28T17:23:51;4.73;;;2.73;;
70228;SDS011;57617;51.988;5.854;2023-02-28T17:26:18;5.90;;;2.28;;